Time;durP1;ratioP1;P1;durP2;ratioP2;P2;SDS_P1;SDS_P2;PMS_P1;PMS_P2;Temp;Humidity;BMP_temperature;BMP_pressure;BME280_temperature;BME280_humidity;BME280_pressure;Samples;Min_cycle;Max_cycle;Signal;HPM_P1;HPM_P2
2024/01/07 00:01:33;;;;;;;17.57;6.63;;;;;6.70;95392.00;;;;5045565;28;20212;-67
2024/01/07 00:04:22;;;;;;;17.80;6.80;;;;;6.70;95389.00;;;;5044004;28;20208;-67
2024/01/07 00:07:12;;;;;;;11.00;5.13;;;;;6.70;95384.00;;;;5045969;28;20684;-65
2024/01/07 00:10:01;;;;;;;13.10;5.33;;;;;6.90;95391.00;;;;5041701;28;20226;-66
2024/01/07 00:12:52;;;;;;;8.37;3.93;;;;;6.80;95388.00;;;;5043873;28;20204;-66
2024/01/07 00:15:41;;;;;;;8.23;3.83;;;;;6.90;95388.00;;;;5046619;28;20744;-66
2024/01/07 00:18:30;;;;;;;17.30;6.27;;;;;6.60;95383.00;;;;5047541;28;20205;-66
2024/01/07 00:21:19;;;;;;;27.17;9.50;;;;;6.60;95376.00;;;;5044474;28;20778;-66
2024/01/07 00:24:08;;;;;;;19.23;7.10;;;;;6.80;95370.00;;;;5047072;28;20215;-65
2024/01/07 00:26:58;;;;;;;9.57;4.20;;;;;6.60;95370.00;;;;5044122;28;20200;-66
2024/01/07 00:29:48;;;;;;;9.70;4.63;;;;;6.70;95367.00;;;;5041599;28;20602;-67
2024/01/07 00:32:37;;;;;;;8.63;3.77;;;;;6.90;95369.00;;;;5044926;28;20731;-67
2024/01/07 00:35:26;;;;;;;18.53;6.70;;;;;6.90;95376.00;;;;5046310;28;20224;-66
2024/01/07 00:38:16;;;;;;;13.83;5.23;;;;;6.90;95369.00;;;;5046894;28;20204;-67
2024/01/07 00:41:05;;;;;;;14.30;5.23;;;;;6.90;95364.00;;;;5043103;28;20200;-66
2024/01/07 00:43:54;;;;;;;8.80;3.80;;;;;6.90;95365.00;;;;5044094;28;20196;-69
2024/01/07 00:46:45;;;;;;;9.27;3.70;;;;;6.80;95365.00;;;;5045820;28;20589;-66
2024/01/07 00:49:36;;;;;;;13.03;4.70;;;;;6.30;95358.00;;;;5041545;28;20235;-67
2024/01/07 00:52:25;;;;;;;22.53;7.47;;;;;6.90;95370.00;;;;5044969;28;20205;-66
2024/01/07 00:55:14;;;;;;;9.07;3.83;;;;;6.90;95385.00;;;;5046889;28;20205;-66
2024/01/07 00:58:03;;;;;;;11.03;4.30;;;;;6.90;95376.00;;;;5045075;28;20220;-66
2024/01/07 01:00:53;;;;;;;9.57;3.90;;;;;6.80;95370.00;;;;5042357;28;20645;-67
2024/01/07 01:03:44;;;;;;;9.53;3.70;;;;;6.80;95378.00;;;;5040497;28;20227;-66
2024/01/07 01:06:33;;;;;;;11.83;4.27;;;;;6.70;95365.00;;;;5046804;28;20240;-67
2024/01/07 01:09:23;;;;;;;11.87;4.40;;;;;6.90;95368.00;;;;5039867;28;20233;-66
2024/01/07 01:12:12;;;;;;;13.40;4.90;;;;;6.80;95369.00;;;;5047230;28;20201;-66
2024/01/07 01:15:01;;;;;;;7.80;3.30;;;;;6.90;95361.00;;;;5042445;28;20239;-66
2024/01/07 01:17:50;;;;;;;8.57;3.50;;;;;6.80;95368.00;;;;5041488;28;20200;-67
2024/01/07 01:20:41;;;;;;;10.70;3.97;;;;;6.80;95366.00;;;;5044701;28;20258;-66
2024/01/07 01:23:30;;;;;;;19.47;6.93;;;;;6.80;95363.00;;;;5045168;28;20216;-67
2024/01/07 01:26:19;;;;;;;13.73;5.03;;;;;6.90;95356.00;;;;5047031;28;20586;-65
2024/01/07 01:29:08;;;;;;;11.97;4.67;;;;;6.80;95365.00;;;;5047066;28;20228;-66
2024/01/07 01:31:58;;;;;;;5.93;2.60;;;;;6.70;95352.00;;;;5047404;28;20215;-65
2024/01/07 01:34:47;;;;;;;9.57;3.87;;;;;6.90;95359.00;;;;5040800;28;20245;-66
2024/01/07 01:37:38;;;;;;;9.00;3.60;;;;;6.60;95340.00;;;;5046236;28;20217;-66
2024/01/07 01:40:27;;;;;;;10.43;4.07;;;;;6.80;95349.00;;;;5039920;28;20232;-66
2024/01/07 01:43:24;;;;;;;13.30;5.10;;;;;6.90;95350.00;;;;5045995;28;20201;-68
2024/01/07 01:46:13;;;;;;;10.27;4.10;;;;;6.80;95352.00;;;;5042136;28;20583;-66
2024/01/07 01:49:03;;;;;;;9.07;3.63;;;;;6.90;95350.00;;;;5039702;28;20972;-66
2024/01/07 01:51:53;;;;;;;10.13;3.90;;;;;7.00;95337.00;;;;5047165;28;20584;-67
2024/01/07 01:54:43;;;;;;;9.97;3.97;;;;;6.80;95341.00;;;;5040025;28;20203;-65
2024/01/07 01:57:35;;;;;;;14.60;5.50;;;;;6.80;95342.00;;;;5045155;28;20243;-66
2024/01/07 02:00:24;;;;;;;17.33;6.37;;;;;6.90;95333.00;;;;5046477;28;20239;-66
2024/01/07 02:03:14;;;;;;;9.97;3.90;;;;;6.70;95335.00;;;;5047573;28;20208;-66
2024/01/07 02:06:03;;;;;;;9.07;3.80;;;;;6.80;95338.00;;;;5043984;28;20200;-65
2024/01/07 02:08:53;;;;;;;9.63;3.93;;;;;6.80;95338.00;;;;5041681;28;20217;-68
2024/01/07 02:11:43;;;;;;;8.57;3.77;;;;;6.90;95330.00;;;;5051003;28;20204;-66
2024/01/07 02:14:33;;;;;;;9.10;3.70;;;;;6.90;95337.00;;;;5050079;28;20254;-65
2024/01/07 02:17:22;;;;;;;19.43;7.23;;;;;7.00;95338.00;;;;5050093;28;20232;-66
2024/01/07 02:20:11;;;;;;;10.17;4.03;;;;;6.90;95342.00;;;;5050544;28;20234;-66
2024/01/07 02:23:01;;;;;;;7.03;3.07;;;;;6.90;95329.00;;;;5045417;28;20235;-66
2024/01/07 02:25:51;;;;;;;9.93;4.00;;;;;7.00;95343.00;;;;5050320;28;20204;-66
2024/01/07 02:28:40;;;;;;;11.20;4.53;;;;;6.90;95329.00;;;;5050781;28;20204;-66
2024/01/07 02:31:29;;;;;;;19.43;7.10;;;;;6.80;95336.00;;;;5050094;28;20209;-66
2024/01/07 02:34:19;;;;;;;8.03;3.83;;;;;6.90;95332.00;;;;5042088;28;20839;-65
2024/01/07 02:37:08;;;;;;;7.13;3.57;;;;;7.00;95332.00;;;;5049663;28;20228;-66
2024/01/07 02:39:57;;;;;;;11.87;4.80;;;;;7.00;95342.00;;;;5046913;28;20220;-67
2024/01/07 02:42:49;;;;;;;8.73;3.83;;;;;6.80;95325.00;;;;5043693;28;20204;-67
2024/01/07 02:45:38;;;;;;;7.77;3.37;;;;;7.00;95341.00;;;;5049350;28;20212;-66
2024/01/07 02:48:27;;;;;;;15.77;6.07;;;;;7.00;95329.00;;;;5050012;28;20208;-66
2024/01/07 02:51:17;;;;;;;21.67;8.13;;;;;7.00;95322.00;;;;5049826;28;20253;-65
2024/01/07 02:54:06;;;;;;;19.87;7.73;;;;;7.00;95323.00;;;;5044416;28;20195;-67
2024/01/07 02:56:55;;;;;;;10.27;4.63;;;;;6.90;95325.00;;;;5048164;28;20224;-64
2024/01/07 02:59:46;;;;;;;9.87;4.37;;;;;6.90;95326.00;;;;5049238;28;20216;-65
2024/01/07 03:02:35;;;;;;;14.00;5.63;;;;;7.00;95326.00;;;;5048189;28;20205;-66
2024/01/07 03:05:24;;;;;;;15.57;6.23;;;;;7.10;95321.00;;;;5049387;28;20222;-66
2024/01/07 03:08:13;;;;;;;14.40;5.87;;;;;7.10;95325.00;;;;5049426;28;20205;-68
2024/01/07 03:11:06;;;;;;;12.50;5.53;;;;;6.90;95320.00;;;;5047751;28;20697;-65
2024/01/07 03:13:56;;;;;;;11.27;4.93;;;;;7.10;95317.00;;;;5045194;28;20205;-67
2024/01/07 03:16:46;;;;;;;10.47;5.07;;;;;7.00;95315.00;;;;5042749;28;20227;-65
2024/01/07 03:19:35;;;;;;;15.77;6.73;;;;;7.00;95325.00;;;;5049298;28;20232;-66
2024/01/07 03:22:25;;;;;;;17.00;6.90;;;;;7.00;95317.00;;;;5047879;28;20208;-66
2024/01/07 03:25:14;;;;;;;7.50;3.97;;;;;7.00;95322.00;;;;5048106;28;20204;-66
2024/01/07 03:28:03;;;;;;;14.00;5.87;;;;;7.00;95319.00;;;;5050059;28;20201;-66
2024/01/07 03:30:53;;;;;;;8.27;4.23;;;;;7.10;95324.00;;;;5048620;28;20224;-66
2024/01/07 03:33:44;;;;;;;8.63;4.73;;;;;7.00;95324.00;;;;5048423;28;20196;-67
2024/01/07 03:36:33;;;;;;;14.97;6.70;;;;;7.00;95321.00;;;;5048871;28;20215;-66
2024/01/07 03:39:22;;;;;;;15.97;6.50;;;;;7.00;95327.00;;;;5048510;28;20217;-67
2024/01/07 03:42:12;;;;;;;12.77;5.87;;;;;6.90;95333.00;;;;5048375;28;20208;-65
2024/01/07 03:45:01;;;;;;;10.53;5.00;;;;;7.00;95345.00;;;;5048408;28;20200;-66
2024/01/07 03:47:50;;;;;;;14.60;6.83;;;;;7.00;95342.00;;;;5038496;28;20678;-66
2024/01/07 03:50:41;;;;;;;11.87;6.40;;;;;6.90;95339.00;;;;5048813;28;20220;-66
2024/01/07 03:53:31;;;;;;;17.07;7.50;;;;;7.10;95336.00;;;;5035329;28;20212;-66
2024/01/07 03:56:20;;;;;;;9.83;5.13;;;;;7.10;95342.00;;;;5044235;28;20223;-65
2024/01/07 03:59:09;;;;;;;13.97;6.43;;;;;7.20;95346.00;;;;5042495;28;20753;-66
2024/01/07 04:01:59;;;;;;;11.47;6.37;;;;;7.00;95343.00;;;;5042710;28;20201;-66
2024/01/07 04:04:48;;;;;;;11.13;6.37;;;;;7.20;95347.00;;;;5041862;28;20196;-66
2024/01/07 04:07:39;;;;;;;17.73;8.33;;;;;7.10;95351.00;;;;5037982;28;20607;-66
2024/01/07 04:10:28;;;;;;;17.97;8.27;;;;;7.10;95347.00;;;;5040625;28;20224;-66
2024/01/07 04:13:17;;;;;;;12.97;7.93;;;;;7.20;95348.00;;;;5034864;28;20201;-67
2024/01/07 04:16:06;;;;;;;13.93;8.47;;;;;7.30;95359.00;;;;5044230;28;20200;-66
2024/01/07 04:21:47;;;;;;;12.93;7.00;;;;;7.10;95364.00;;;;5004180;28;20254;-70
2024/01/07 04:24:41;;;;;;;17.23;8.97;;;;;6.90;95363.00;;;;5011971;28;20249;-68
2024/01/07 04:27:30;;;;;;;17.77;8.93;;;;;7.20;95363.00;;;;5007591;28;20597;-69
2024/01/07 04:30:19;;;;;;;12.53;7.93;;;;;6.90;95375.00;;;;5010155;28;20854;-70
2024/01/07 04:33:09;;;;;;;12.27;8.07;;;;;7.10;95369.00;;;;5023882;28;20220;-71
2024/01/07 04:35:59;;;;;;;17.20;10.40;;;;;7.00;95372.00;;;;5021341;28;20194;-70
2024/01/07 04:38:48;;;;;;;10.63;7.53;;;;;6.70;95366.00;;;;5021968;28;20216;-69
2024/01/07 04:41:38;;;;;;;18.37;10.00;;;;;7.00;95383.00;;;;5027041;28;20201;-70
2024/01/07 04:44:27;;;;;;;17.97;10.07;;;;;6.90;95379.00;;;;5024437;28;20209;-70
2024/01/07 04:47:27;;;;;;;8.83;7.87;;;;;6.80;95387.00;;;;5018733;28;20209;-70
2024/01/07 04:50:19;;;;;;;14.17;10.47;;;;;6.50;95389.00;;;;5024502;28;20609;-70
2024/01/07 04:53:08;;;;;;;16.17;10.00;;;;;6.60;95391.00;;;;5027563;28;20212;-70
2024/01/07 04:55:57;;;;;;;15.53;8.57;;;;;6.80;95391.00;;;;5021916;28;20244;-71
2024/01/07 04:58:48;;;;;;;11.53;7.83;;;;;7.00;95401.00;;;;5020077;28;20221;-69
2024/01/07 05:01:37;;;;;;;23.90;11.27;;;;;6.90;95396.00;;;;5019654;28;20209;-69
2024/01/07 05:04:26;;;;;;;24.33;11.40;;;;;7.10;95402.00;;;;5023510;28;20208;-71
2024/01/07 05:07:16;;;;;;;12.40;7.60;;;;;7.00;95395.00;;;;5023741;28;20674;-70
2024/01/07 05:10:06;;;;;;;11.70;7.77;;;;;6.90;95400.00;;;;5010680;28;20222;-70
2024/01/07 05:12:55;;;;;;;10.07;7.13;;;;;6.30;95391.00;;;;5015548;28;20580;-69
2024/01/07 05:15:46;;;;;;;12.00;8.20;;;;;6.70;95399.00;;;;5016286;28;20206;-70
2024/01/07 05:18:35;;;;;;;20.50;10.70;;;;;6.70;95411.00;;;;5020573;28;20225;-69
2024/01/07 05:21:24;;;;;;;19.40;10.83;;;;;6.80;95410.00;;;;5018696;28;20694;-70
2024/01/07 05:24:14;;;;;;;22.43;11.40;;;;;6.90;95410.00;;;;5025642;28;20227;-71
2024/01/07 05:27:03;;;;;;;12.77;8.27;;;;;6.70;95425.00;;;;5018773;28;20208;-69
2024/01/07 05:29:54;;;;;;;12.47;8.20;;;;;6.60;95419.00;;;;5015956;28;20698;-70
2024/01/07 05:32:45;;;;;;;15.00;9.73;;;;;6.40;95409.00;;;;5023132;28;20220;-70
2024/01/07 05:35:34;;;;;;;19.60;11.63;;;;;6.60;95406.00;;;;5026209;28;20205;-70
2024/01/07 05:38:23;;;;;;;18.23;11.23;;;;;5.90;95416.00;;;;5017826;28;20229;-72
2024/01/07 05:41:12;;;;;;;25.30;13.10;;;;;6.70;95414.00;;;;5022102;28;20235;-70
2024/01/07 05:44:01;;;;;;;21.70;12.87;;;;;6.80;95418.00;;;;5021697;28;20205;-68
2024/01/07 05:46:51;;;;;;;13.67;10.50;;;;;6.70;95418.00;;;;5020730;28;20210;-70
2024/01/07 05:49:41;;;;;;;15.43;11.63;;;;;6.70;95420.00;;;;5029824;28;20221;-68
2024/01/07 05:52:30;;;;;;;23.47;15.20;;;;;6.90;95427.00;;;;5028005;28;20208;-70
2024/01/07 05:55:19;;;;;;;13.87;11.83;;;;;6.60;95424.00;;;;5020861;28;20211;-70
2024/01/07 05:58:08;;;;;;;15.97;12.67;;;;;6.40;95432.00;;;;5031556;28;20236;-70
2024/01/07 06:00:57;;;;;;;17.73;15.13;;;;;6.40;95422.00;;;;5025947;28;20299;-69
2024/01/07 06:03:47;;;;;;;15.57;12.97;;;;;6.50;95426.00;;;;5027132;28;20212;-71
2024/01/07 06:06:38;;;;;;;25.07;17.00;;;;;6.60;95431.00;;;;5029772;28;20201;-70
2024/01/07 06:09:27;;;;;;;22.30;15.63;;;;;6.50;95440.00;;;;5030046;28;20225;-71
2024/01/07 06:12:16;;;;;;;17.97;12.63;;;;;6.60;95434.00;;;;5030464;28;20208;-70
2024/01/07 06:15:06;;;;;;;13.20;11.90;;;;;6.70;95441.00;;;;5022102;28;20209;-70
2024/01/07 06:17:55;;;;;;;21.53;15.93;;;;;6.50;95437.00;;;;5019528;28;20205;-70
2024/01/07 06:20:46;;;;;;;17.63;14.53;;;;;6.50;95439.00;;;;5022555;28;20232;-69
2024/01/07 06:23:37;;;;;;;25.87;16.20;;;;;6.50;95439.00;;;;5028440;28;20201;-71
2024/01/07 06:26:26;;;;;;;24.07;16.27;;;;;6.60;95438.00;;;;5023846;28;20212;-70
2024/01/07 06:29:15;;;;;;;14.73;12.97;;;;;6.50;95434.00;;;;5018519;28;20228;-72
2024/01/07 06:32:05;;;;;;;17.17;15.40;;;;;6.20;95429.00;;;;5027903;28;20216;-69
2024/01/07 06:34:54;;;;;;;17.83;15.70;;;;;6.30;95441.00;;;;5029265;28;20225;-72
2024/01/07 06:37:43;;;;;;;15.60;14.13;;;;;6.40;95443.00;;;;5018810;28;20213;-70
2024/01/07 06:40:34;;;;;;;17.43;15.77;;;;;6.50;95459.00;;;;5027532;28;20706;-70
2024/01/07 06:43:23;;;;;;;24.17;18.80;;;;;6.60;95449.00;;;;5030297;28;20220;-69
2024/01/07 06:46:12;;;;;;;16.93;15.13;;;;;6.40;95451.00;;;;5022419;28;20728;-70
2024/01/07 06:49:02;;;;;;;17.83;15.90;;;;;6.10;95467.00;;;;5024646;28;20194;-71
2024/01/07 06:51:51;;;;;;;18.23;16.70;;;;;6.30;95461.00;;;;5017301;28;20598;-69
2024/01/07 06:54:40;;;;;;;16.03;14.57;;;;;6.20;95463.00;;;;5028738;28;20267;-70
2024/01/07 06:57:31;;;;;;;28.27;22.53;;;;;6.50;95470.00;;;;5020335;28;20202;-74
2024/01/07 07:00:21;;;;;;;22.10;19.70;;;;;6.50;95479.00;;;;5024028;28;20237;-70
2024/01/07 07:03:11;;;;;;;24.07;20.80;;;;;6.50;95479.00;;;;5025402;28;20216;-70
2024/01/07 07:06:00;;;;;;;22.30;19.93;;;;;6.50;95468.00;;;;5023813;28;20205;-70
2024/01/07 07:08:49;;;;;;;23.10;20.83;;;;;6.50;95483.00;;;;5025518;28;20200;-71
2024/01/07 07:11:38;;;;;;;25.33;21.93;;;;;6.30;95475.00;;;;5025319;28;20209;-70
2024/01/07 07:14:29;;;;;;;62.43;37.83;;;;;6.20;95476.00;;;;5010407;28;20278;-69
2024/01/07 07:17:18;;;;;;;54.47;34.33;;;;;6.40;95479.00;;;;5010908;28;20209;-69
2024/01/07 07:20:08;;;;;;;37.27;30.53;;;;;6.40;95493.00;;;;5024268;28;20304;-70
2024/01/07 07:22:57;;;;;;;27.97;25.50;;;;;6.20;95487.00;;;;5023103;28;20202;-69
2024/01/07 07:25:46;;;;;;;48.10;33.37;;;;;6.10;95488.00;;;;5020159;28;20198;-69
2024/01/07 07:28:36;;;;;;;34.03;30.43;;;;;6.30;95483.00;;;;5019708;28;20213;-69
2024/01/07 07:31:26;;;;;;;58.80;35.43;;;;;6.30;95491.00;;;;5015849;28;21546;-69
2024/01/07 07:34:15;;;;;;;53.67;33.40;;;;;6.40;95490.00;;;;5008610;28;20220;-69
2024/01/07 07:37:05;;;;;;;48.67;30.53;;;;;6.40;95490.00;;;;5010092;28;20201;-71
2024/01/07 07:39:54;;;;;;;29.67;22.60;;;;;6.30;95479.00;;;;5010500;28;20234;-70
2024/01/07 07:42:43;;;;;;;46.93;29.17;;;;;6.30;95482.00;;;;5010618;28;20197;-69
2024/01/07 07:45:32;;;;;;;21.47;19.43;;;;;6.50;95491.00;;;;5005960;28;20205;-69
2024/01/07 07:48:23;;;;;;;79.73;40.63;;;;;6.60;95493.00;;;;5005675;28;20201;-73
2024/01/07 07:51:12;;;;;;;32.23;24.53;;;;;6.50;95495.00;;;;5006835;28;20236;-71
2024/01/07 07:54:01;;;;;;;54.40;32.43;;;;;6.50;95496.00;;;;5008520;28;20193;-69
2024/01/07 07:56:51;;;;;;;26.90;21.60;;;;;6.40;95509.00;;;;5011289;28;21799;-70
2024/01/07 07:59:40;;;;;;;63.17;36.07;;;;;6.40;95493.00;;;;5011593;28;21105;-71
2024/01/07 08:02:29;;;;;;;82.33;41.33;;;;;6.00;95497.00;;;;5008034;28;20208;-70
2024/01/07 08:05:20;;;;;;;53.20;33.33;;;;;6.50;95499.00;;;;5008742;28;20206;-72
2024/01/07 08:08:10;;;;;;;53.13;30.80;;;;;6.90;95510.00;;;;5010268;28;20590;-71
2024/01/07 08:10:59;;;;;;;29.93;23.53;;;;;6.90;95512.00;;;;5009753;28;20213;-73
2024/01/07 08:13:48;;;;;;;57.50;35.40;;;;;6.50;95519.00;;;;5010368;28;20666;-71
2024/01/07 08:16:37;;;;;;;28.70;22.53;;;;;6.50;95522.00;;;;5005557;28;20757;-71
2024/01/07 08:19:26;;;;;;;53.83;31.80;;;;;6.30;95521.00;;;;5007180;28;20752;-72
2024/01/07 08:22:17;;;;;;;47.70;30.17;;;;;6.70;95519.00;;;;5007845;28;20701;-71
2024/01/07 08:25:07;;;;;;;50.87;31.97;;;;;6.70;95528.00;;;;5008356;28;22049;-72
2024/01/07 08:27:56;;;;;;;57.97;31.90;;;;;6.90;95526.00;;;;5004835;28;20202;-72
2024/01/07 08:30:45;;;;;;;37.10;27.33;;;;;7.00;95532.00;;;;5009101;28;20222;-72
2024/01/07 08:33:35;;;;;;;55.57;34.23;;;;;7.00;95520.00;;;;5004536;28;20206;-72
2024/01/07 08:36:24;;;;;;;26.27;21.97;;;;;6.90;95529.00;;;;5019053;28;20212;-71
2024/01/07 08:39:16;;;;;;;25.83;23.27;;;;;6.60;95521.00;;;;5028817;28;20229;-70
2024/01/07 08:42:05;;;;;;;19.43;17.93;;;;;6.70;95523.00;;;;5026307;28;20745;-72
2024/01/07 08:44:55;;;;;;;21.30;19.27;;;;;7.00;95525.00;;;;5031275;28;20247;-71
2024/01/07 08:47:44;;;;;;;21.10;19.27;;;;;7.00;95530.00;;;;5030374;28;20213;-72
2024/01/07 08:50:33;;;;;;;29.70;24.10;;;;;7.00;95535.00;;;;5016356;28;20210;-71
2024/01/07 08:53:22;;;;;;;27.20;23.20;;;;;6.40;95528.00;;;;5020702;28;20204;-69
2024/01/07 08:56:14;;;;;;;24.53;22.13;;;;;6.30;95537.00;;;;5024906;28;20205;-72
2024/01/07 08:59:04;;;;;;;44.80;30.13;;;;;6.90;95536.00;;;;5004558;28;20209;-72
2024/01/07 09:01:53;;;;;;;47.03;30.80;;;;;6.70;95540.00;;;;5004499;28;20702;-72
2024/01/07 09:04:42;;;;;;;39.57;29.50;;;;;7.10;95551.00;;;;5005372;28;20201;-72
2024/01/07 09:07:31;;;;;;;63.27;37.27;;;;;6.90;95555.00;;;;5005354;28;20205;-71
2024/01/07 09:10:21;;;;;;;57.93;33.73;;;;;7.10;95549.00;;;;5011932;28;20225;-72
2024/01/07 09:13:12;;;;;;;53.63;34.07;;;;;6.80;95560.00;;;;5009927;28;20213;-71
2024/01/07 09:16:01;;;;;;;40.13;26.87;;;;;6.80;95556.00;;;;5006439;28;20197;-70
2024/01/07 09:18:50;;;;;;;53.73;35.47;;;;;6.40;95558.00;;;;5008071;28;20751;-73
2024/01/07 09:21:40;;;;;;;58.13;34.53;;;;;6.60;95554.00;;;;5007094;28;20557;-72
2024/01/07 09:24:29;;;;;;;58.10;36.13;;;;;6.90;95567.00;;;;5010408;28;20213;-71
2024/01/07 09:27:18;;;;;;;53.70;36.23;;;;;6.80;95557.00;;;;5008485;28;20205;-71
2024/01/07 09:30:11;;;;;;;52.70;35.63;;;;;6.40;95554.00;;;;5002978;28;20224;-72
2024/01/07 09:33:01;;;;;;;53.63;36.87;;;;;6.80;95562.00;;;;5007171;28;20627;-72
2024/01/07 09:35:50;;;;;;;62.87;42.67;;;;;6.80;95562.00;;;;5005555;28;20205;-72
2024/01/07 09:38:39;;;;;;;60.60;36.43;;;;;6.80;95561.00;;;;5006721;28;20404;-70
2024/01/07 09:41:28;;;;;;;72.70;46.60;;;;;6.80;95562.00;;;;5008195;28;20581;-71
2024/01/07 09:44:19;;;;;;;64.37;42.00;;;;;6.40;95554.00;;;;5007179;28;20206;-70
2024/01/07 09:47:13;;;;;;;61.40;42.30;;;;;6.70;95552.00;;;;5011730;28;20843;-71
2024/01/07 09:50:02;;;;;;;31.33;28.50;;;;;6.80;95563.00;;;;5003447;28;20233;-71
2024/01/07 09:52:53;;;;;;;58.13;40.17;;;;;6.80;95556.00;;;;5009020;28;20205;-70
2024/01/07 09:55:58;;;;;;;40.33;33.90;;;;;7.10;95562.00;;;;5007211;28;20230;-72
2024/01/07 09:58:49;;;;;;;54.20;39.43;;;;;6.70;95558.00;;;;5005250;28;20270;-70
2024/01/07 10:01:38;;;;;;;80.17;48.03;;;;;6.70;95562.00;;;;5004498;28;20244;-70
2024/01/07 10:04:30;;;;;;;70.73;48.23;;;;;6.40;95553.00;;;;5005312;28;20209;-70
2024/01/07 10:07:19;;;;;;;54.60;39.43;;;;;6.70;95552.00;;;;5009410;28;20198;-71
2024/01/07 10:10:15;;;;;;;64.33;45.30;;;;;6.40;95552.00;;;;5007160;28;20217;-71
2024/01/07 10:13:04;;;;;;;45.17;37.97;;;;;6.60;95543.00;;;;5005011;28;20679;-70
2024/01/07 10:15:54;;;;;;;61.13;42.77;;;;;6.70;95543.00;;;;5008908;28;20198;-69
2024/01/07 10:18:43;;;;;;;33.80;30.70;;;;;7.10;95544.00;;;;5007432;28;20206;-69
2024/01/07 10:21:34;;;;;;;69.60;45.33;;;;;7.10;95547.00;;;;5067114;23;20231;-86
2024/01/07 10:24:23;;;;;;;32.37;29.30;;;;;7.00;95553.00;;;;5043424;28;20212;-85
2024/01/07 10:27:13;;;;;;;59.83;43.27;;;;;6.80;95549.00;;;;5037214;28;20224;-86
2024/01/07 10:30:02;;;;;;;63.07;42.53;;;;;7.00;95557.00;;;;5037603;28;20599;-85
2024/01/07 10:32:51;;;;;;;61.40;43.90;;;;;6.90;95555.00;;;;5045905;28;20692;-85
2024/01/07 10:35:43;;;;;;;63.87;44.07;;;;;7.10;95554.00;;;;5044528;28;20228;-86
2024/01/07 10:38:33;;;;;;;71.53;47.37;;;;;7.20;95554.00;;;;5040361;28;20211;-87
2024/01/07 10:41:23;;;;;;;68.80;43.67;;;;;7.00;95538.00;;;;5047757;28;20205;-86
2024/01/07 10:44:13;;;;;;;71.10;47.90;;;;;7.20;95546.00;;;;5043921;28;20197;-86
2024/01/07 10:47:02;;;;;;;55.70;40.03;;;;;7.20;95542.00;;;;5037035;28;20237;-85
2024/01/07 10:49:52;;;;;;;61.03;43.97;;;;;7.10;95546.00;;;;5033326;28;20200;-86
2024/01/07 10:52:42;;;;;;;73.70;51.80;;;;;7.20;95553.00;;;;5026536;28;20303;-84
2024/01/07 10:55:36;;;;;;;68.47;48.43;;;;;7.00;95551.00;;;;5035218;28;20220;-85
2024/01/07 10:58:26;;;;;;;38.17;34.23;;;;;6.90;95549.00;;;;5036040;28;20210;-85
2024/01/07 11:01:15;;;;;;;71.07;50.93;;;;;7.00;95552.00;;;;5031215;28;20201;-84
2024/01/07 11:04:09;;;;;;;47.43;39.33;;;;;7.30;95550.00;;;;5037112;28;20200;-86
2024/01/07 11:07:10;;;;;;;70.37;50.77;;;;;7.30;95549.00;;;;5042171;28;20358;-87
2024/01/07 11:10:06;;;;;;;55.43;43.17;;;;;7.30;95538.00;;;;5026628;28;20460;-84
2024/01/07 11:12:58;;;;;;;72.00;53.27;;;;;7.20;95543.00;;;;5030245;28;20210;-86
2024/01/07 11:15:53;;;;;;;55.03;42.77;;;;;7.30;95542.00;;;;5027587;28;20766;-84
2024/01/07 11:18:50;;;;;;;85.67;58.63;;;;;7.70;95544.00;;;;5034168;28;20201;-87
2024/01/07 11:21:40;;;;;;;57.60;46.87;;;;;7.40;95529.00;;;;5036050;28;21081;-87
2024/01/07 11:24:42;;;;;;;48.70;43.27;;;;;7.50;95536.00;;;;5042713;28;20209;-86
2024/01/07 11:27:32;;;;;;;79.67;53.23;;;;;7.50;95536.00;;;;5029672;28;20331;-84
2024/01/07 11:30:23;;;;;;;80.77;60.67;;;;;7.60;95536.00;;;;5033364;28;20197;-84
2024/01/07 11:33:15;;;;;;;85.70;58.77;;;;;7.60;95528.00;;;;5031083;28;20200;-84
2024/01/07 11:36:06;;;;;;;84.67;61.20;;;;;7.80;95536.00;;;;5030675;28;20216;-85
2024/01/07 11:38:55;;;;;;;50.93;45.63;;;;;8.10;95536.00;;;;5033181;28;21491;-87
2024/01/07 11:41:45;;;;;;;90.43;66.60;;;;;8.10;95536.00;;;;5032270;28;20667;-84
2024/01/07 11:44:37;;;;;;;91.97;63.37;;;;;7.90;95531.00;;;;5027903;28;20203;-86
2024/01/07 11:47:28;;;;;;;89.50;64.60;;;;;7.60;95530.00;;;;5031075;28;20215;-85
2024/01/07 11:50:17;;;;;;;62.07;51.67;;;;;7.80;95539.00;;;;5030891;28;20205;-84
2024/01/07 11:53:06;;;;;;;82.43;60.90;;;;;7.30;95528.00;;;;5038040;28;20217;-84
2024/01/07 11:55:56;;;;;;;51.43;46.23;;;;;7.70;95533.00;;;;5040267;28;20698;-84
2024/01/07 11:58:45;;;;;;;52.73;47.00;;;;;7.70;95533.00;;;;5052377;28;20197;-86
2024/01/07 12:01:36;;;;;;;63.13;52.10;;;;;7.80;95541.00;;;;5045815;28;20246;-88
2024/01/07 12:04:28;;;;;;;52.60;46.90;;;;;7.80;95534.00;;;;5044025;28;20334;-86
2024/01/07 12:07:18;;;;;;;54.30;48.43;;;;;8.10;95532.00;;;;5046750;28;20286;-86
2024/01/07 12:10:11;;;;;;;55.77;48.87;;;;;7.50;95539.00;;;;5046867;28;20638;-86
2024/01/07 12:13:00;;;;;;;57.60;49.37;;;;;7.70;95535.00;;;;5045633;28;20323;-86
2024/01/07 12:15:50;;;;;;;47.80;43.27;;;;;7.80;95532.00;;;;5042820;28;20240;-87
2024/01/07 12:18:40;;;;;;;107.03;70.27;;;;;8.00;95545.00;;;;5047143;28;20213;-87
2024/01/07 12:21:31;;;;;;;77.13;58.63;;;;;8.20;95538.00;;;;5051806;28;20255;-86
2024/01/07 12:24:25;;;;;;;55.63;49.40;;;;;7.70;95538.00;;;;5062068;28;20354;-87
2024/01/07 12:27:16;;;;;;;59.93;50.20;;;;;7.90;95527.00;;;;5053837;28;20220;-88
2024/01/07 12:30:07;;;;;;;63.13;52.07;;;;;7.90;95543.00;;;;5050307;28;20216;-90
2024/01/07 12:32:57;;;;;;;85.17;59.63;;;;;7.90;95536.00;;;;5055165;28;20218;-88
2024/01/07 12:35:47;;;;;;;61.90;51.87;;;;;8.10;95539.00;;;;5049345;28;20239;-89
2024/01/07 12:38:39;;;;;;;77.50;59.03;;;;;8.00;95541.00;;;;5051425;28;20213;-89
2024/01/07 12:41:29;;;;;;;115.07;79.43;;;;;8.00;95538.00;;;;5059504;28;20207;-90
2024/01/07 12:44:18;;;;;;;97.90;65.97;;;;;8.10;95546.00;;;;5042792;28;20209;-89
2024/01/07 12:47:07;;;;;;;107.77;75.60;;;;;8.20;95553.00;;;;5047975;28;20225;-89
2024/01/07 12:49:58;;;;;;;68.97;57.07;;;;;8.10;95548.00;;;;5050222;28;20213;-87
2024/01/07 12:52:47;;;;;;;94.10;65.57;;;;;8.20;95564.00;;;;5055913;28;20240;-89
2024/01/07 12:55:38;;;;;;;82.23;60.53;;;;;7.90;95549.00;;;;5044436;28;20228;-87
2024/01/07 12:58:27;;;;;;;104.83;74.17;;;;;7.90;95555.00;;;;5045075;28;20200;-87
2024/01/07 13:01:16;;;;;;;80.87;60.37;;;;;7.80;95562.00;;;;5045913;28;20205;-87
2024/01/07 13:04:06;;;;;;;108.30;76.83;;;;;8.00;95564.00;;;;5036429;28;20217;-87
2024/01/07 13:06:55;;;;;;;104.90;72.77;;;;;7.80;95559.00;;;;5035178;28;20270;-89
2024/01/07 13:09:45;;;;;;;116.83;77.10;;;;;7.80;95564.00;;;;5028873;28;20206;-88
2024/01/07 13:12:36;;;;;;;136.00;87.47;;;;;8.00;95564.00;;;;5038538;28;20220;-87
2024/01/07 13:15:27;;;;;;;119.10;76.23;;;;;7.50;95562.00;;;;5037231;28;20265;-86
2024/01/07 13:18:16;;;;;;;133.07;86.33;;;;;7.60;95566.00;;;;5037030;28;20218;-86
2024/01/07 13:21:06;;;;;;;117.07;79.40;;;;;7.70;95564.00;;;;5044051;28;20220;-87
2024/01/07 13:27:29;;;;;;;117.87;76.10;;;;;7.70;95583.00;;;;5035458;28;20200;-86
2024/01/07 13:30:21;;;;;;;119.93;77.07;;;;;7.30;95579.00;;;;5034710;28;20200;-87
2024/01/07 13:33:10;;;;;;;121.20;82.07;;;;;7.80;95589.00;;;;5037135;28;20225;-86
2024/01/07 13:36:00;;;;;;;113.17;73.93;;;;;7.50;95582.00;;;;5039607;28;20305;-88
2024/01/07 13:38:50;;;;;;;120.50;76.07;;;;;7.50;95586.00;;;;5037186;28;20208;-87
2024/01/07 13:41:39;;;;;;;95.33;65.53;;;;;7.90;95600.00;;;;5042964;28;20203;-87
2024/01/07 13:44:28;;;;;;;75.73;55.67;;;;;7.80;95596.00;;;;5049210;28;20205;-85
2024/01/07 13:47:18;;;;;;;74.37;56.33;;;;;7.80;95605.00;;;;5037965;28;20214;-85
2024/01/07 13:50:10;;;;;;;69.10;54.70;;;;;7.80;95593.00;;;;5044207;28;20205;-87
2024/01/07 13:52:59;;;;;;;61.53;51.80;;;;;7.60;95605.00;;;;5041568;28;20286;-87
2024/01/07 13:55:48;;;;;;;73.53;55.93;;;;;7.60;95605.00;;;;5052272;28;20235;-87
2024/01/07 13:58:38;;;;;;;98.00;65.23;;;;;7.60;95601.00;;;;5050609;28;20200;-86
2024/01/07 14:01:27;;;;;;;119.17;81.07;;;;;7.50;95605.00;;;;5051268;28;20223;-85
2024/01/07 14:04:17;;;;;;;84.43;60.60;;;;;7.60;95600.00;;;;5042427;28;20200;-86
2024/01/07 14:07:07;;;;;;;84.77;59.20;;;;;7.60;95602.00;;;;5045736;28;20629;-87
2024/01/07 14:09:56;;;;;;;84.93;59.53;;;;;7.80;95616.00;;;;5057678;28;20747;-87